sensor_id;sensor_type;location;lat;lon;timestamp;P1;durP1;ratioP1;P2;durP2;ratioP2
677;SDS011;321;48.814;9.132;2023-03-20T00:01:13;1.20;;;0.60;;
677;SDS011;321;48.814;9.132;2023-03-20T00:03:45;1.17;;;0.57;;
677;SDS011;321;48.814;9.132;2023-03-20T00:06:13;1.10;;;0.50;;
677;SDS011;321;48.814;9.132;2023-03-20T00:08:41;2.17;;;0.80;;
677;SDS011;321;48.814;9.132;2023-03-20T00:14:12;1.60;;;0.80;;
677;SDS011;321;48.814;9.132;2023-03-20T00:16:41;1.40;;;0.90;;
677;SDS011;321;48.814;9.132;2023-03-20T00:19:18;1.40;;;0.90;;
677;SDS011;321;48.814;9.132;2023-03-20T00:21:48;1.60;;;1.00;;
677;SDS011;321;48.814;9.132;2023-03-20T00:24:15;2.07;;;1.00;;
677;SDS011;321;48.814;9.132;2023-03-20T00:26:41;1.83;;;1.10;;
677;SDS011;321;48.814;9.132;2023-03-20T00:29:12;1.90;;;1.67;;
677;SDS011;321;48.814;9.132;2023-03-20T00:31:43;1.43;;;1.10;;
677;SDS011;321;48.814;9.132;2023-03-20T00:34:11;1.70;;;1.27;;
677;SDS011;321;48.814;9.132;2023-03-20T00:36:38;1.30;;;0.70;;
677;SDS011;321;48.814;9.132;2023-03-20T00:39:04;1.97;;;1.40;;
677;SDS011;321;48.814;9.132;2023-03-20T00:41:31;2.63;;;1.70;;
677;SDS011;321;48.814;9.132;2023-03-20T00:44:23;1.60;;;1.10;;
677;SDS011;321;48.814;9.132;2023-03-20T00:46:58;1.60;;;1.23;;
677;SDS011;321;48.814;9.132;2023-03-20T00:49:31;1.87;;;1.20;;
677;SDS011;321;48.814;9.132;2023-03-20T00:51:58;2.77;;;1.50;;
677;SDS011;321;48.814;9.132;2023-03-20T00:54:25;1.50;;;1.10;;
677;SDS011;321;48.814;9.132;2023-03-20T00:59:24;4.03;;;1.73;;
677;SDS011;321;48.814;9.132;2023-03-20T01:01:57;1.30;;;0.90;;
677;SDS011;321;48.814;9.132;2023-03-20T01:04:24;1.40;;;1.00;;
677;SDS011;321;48.814;9.132;2023-03-20T01:06:58;8.70;;;1.30;;
677;SDS011;321;48.814;9.132;2023-03-20T01:09:23;2.03;;;1.27;;
677;SDS011;321;48.814;9.132;2023-03-20T01:11:49;3.10;;;1.67;;
677;SDS011;321;48.814;9.132;2023-03-20T01:14:14;1.77;;;0.97;;
677;SDS011;321;48.814;9.132;2023-03-20T01:16:40;1.63;;;0.87;;
677;SDS011;321;48.814;9.132;2023-03-20T01:19:06;1.50;;;1.10;;
677;SDS011;321;48.814;9.132;2023-03-20T01:21:38;1.93;;;1.50;;
677;SDS011;321;48.814;9.132;2023-03-20T01:24:04;1.53;;;1.40;;
677;SDS011;321;48.814;9.132;2023-03-20T01:26:36;1.40;;;1.00;;
677;SDS011;321;48.814;9.132;2023-03-20T01:29:05;1.90;;;1.23;;
677;SDS011;321;48.814;9.132;2023-03-20T01:31:43;3.10;;;1.80;;
677;SDS011;321;48.814;9.132;2023-03-20T01:34:09;1.30;;;0.80;;
677;SDS011;321;48.814;9.132;2023-03-20T01:36:35;2.23;;;1.67;;
677;SDS011;321;48.814;9.132;2023-03-20T01:39:02;1.80;;;1.20;;
677;SDS011;321;48.814;9.132;2023-03-20T01:41:28;2.50;;;1.13;;
677;SDS011;321;48.814;9.132;2023-03-20T01:43:55;1.30;;;0.80;;
677;SDS011;321;48.814;9.132;2023-03-20T01:46:27;1.60;;;0.83;;
677;SDS011;321;48.814;9.132;2023-03-20T01:51:25;1.50;;;1.13;;
677;SDS011;321;48.814;9.132;2023-03-20T01:54:09;1.73;;;1.17;;
677;SDS011;321;48.814;9.132;2023-03-20T01:56:49;1.70;;;1.30;;
677;SDS011;321;48.814;9.132;2023-03-20T01:59:24;1.20;;;0.90;;
677;SDS011;321;48.814;9.132;2023-03-20T02:01:53;1.80;;;1.30;;
677;SDS011;321;48.814;9.132;2023-03-20T02:04:21;1.60;;;1.00;;
677;SDS011;321;48.814;9.132;2023-03-20T02:06:50;1.30;;;0.80;;
677;SDS011;321;48.814;9.132;2023-03-20T02:09:15;1.53;;;1.10;;
677;SDS011;321;48.814;9.132;2023-03-20T02:11:41;1.80;;;1.30;;
677;SDS011;321;48.814;9.132;2023-03-20T02:14:09;1.60;;;0.93;;
677;SDS011;321;48.814;9.132;2023-03-20T02:16:35;1.60;;;0.70;;
677;SDS011;321;48.814;9.132;2023-03-20T02:19:01;1.53;;;0.90;;
677;SDS011;321;48.814;9.132;2023-03-20T02:27:05;1.63;;;0.97;;
677;SDS011;321;48.814;9.132;2023-03-20T02:29:50;1.67;;;0.80;;
677;SDS011;321;48.814;9.132;2023-03-20T02:41:27;1.40;;;0.70;;
677;SDS011;321;48.814;9.132;2023-03-20T02:49:30;1.10;;;0.40;;
677;SDS011;321;48.814;9.132;2023-03-20T02:59:54;1.50;;;0.53;;
677;SDS011;321;48.814;9.132;2023-03-20T03:02:39;1.13;;;0.43;;
677;SDS011;321;48.814;9.132;2023-03-20T03:05:23;1.10;;;0.50;;
677;SDS011;321;48.814;9.132;2023-03-20T03:07:54;1.20;;;0.57;;
677;SDS011;321;48.814;9.132;2023-03-20T03:10:25;2.60;;;0.80;;
677;SDS011;321;48.814;9.132;2023-03-20T03:12:54;1.27;;;0.63;;
677;SDS011;321;48.814;9.132;2023-03-20T03:15:27;1.10;;;0.50;;
677;SDS011;321;48.814;9.132;2023-03-20T03:17:59;1.10;;;0.40;;
677;SDS011;321;48.814;9.132;2023-03-20T03:20:30;1.10;;;0.40;;
677;SDS011;321;48.814;9.132;2023-03-20T03:23:02;1.10;;;0.50;;
677;SDS011;321;48.814;9.132;2023-03-20T03:25:29;1.10;;;0.40;;
677;SDS011;321;48.814;9.132;2023-03-20T03:28:21;1.10;;;0.60;;
677;SDS011;321;48.814;9.132;2023-03-20T03:30:53;1.37;;;0.63;;
677;SDS011;321;48.814;9.132;2023-03-20T03:35:52;1.03;;;0.40;;
677;SDS011;321;48.814;9.132;2023-03-20T03:38:28;1.10;;;0.47;;
677;SDS011;321;48.814;9.132;2023-03-20T03:43:29;11.03;;;0.90;;
677;SDS011;321;48.814;9.132;2023-03-20T03:46:08;1.10;;;0.53;;
677;SDS011;321;48.814;9.132;2023-03-20T03:48:57;1.30;;;0.60;;
677;SDS011;321;48.814;9.132;2023-03-20T03:51:25;1.10;;;0.40;;
677;SDS011;321;48.814;9.132;2023-03-20T03:54:02;1.47;;;0.57;;
677;SDS011;321;48.814;9.132;2023-03-20T03:56:35;1.93;;;0.50;;
677;SDS011;321;48.814;9.132;2023-03-20T03:59:04;1.10;;;0.47;;
677;SDS011;321;48.814;9.132;2023-03-20T04:01:33;1.10;;;0.50;;
677;SDS011;321;48.814;9.132;2023-03-20T04:04:00;1.20;;;0.70;;
677;SDS011;321;48.814;9.132;2023-03-20T04:06:30;1.10;;;0.47;;
677;SDS011;321;48.814;9.132;2023-03-20T04:08:56;1.10;;;0.50;;
677;SDS011;321;48.814;9.132;2023-03-20T04:11:23;1.10;;;0.47;;
677;SDS011;321;48.814;9.132;2023-03-20T04:13:50;1.10;;;0.40;;
677;SDS011;321;48.814;9.132;2023-03-20T04:16:19;1.10;;;0.40;;
677;SDS011;321;48.814;9.132;2023-03-20T04:18:47;1.07;;;0.40;;
677;SDS011;321;48.814;9.132;2023-03-20T04:21:13;1.07;;;0.43;;
677;SDS011;321;48.814;9.132;2023-03-20T04:23:42;1.13;;;0.60;;
677;SDS011;321;48.814;9.132;2023-03-20T04:26:08;1.10;;;0.40;;
677;SDS011;321;48.814;9.132;2023-03-20T04:28:34;1.40;;;0.60;;
677;SDS011;321;48.814;9.132;2023-03-20T04:31:00;1.10;;;0.40;;
677;SDS011;321;48.814;9.132;2023-03-20T04:33:26;1.27;;;0.53;;
677;SDS011;321;48.814;9.132;2023-03-20T04:35:52;1.10;;;0.50;;
677;SDS011;321;48.814;9.132;2023-03-20T04:38:18;1.10;;;0.47;;
677;SDS011;321;48.814;9.132;2023-03-20T04:40:44;1.10;;;0.60;;
677;SDS011;321;48.814;9.132;2023-03-20T04:43:11;1.30;;;0.73;;
677;SDS011;321;48.814;9.132;2023-03-20T04:45:37;1.30;;;0.90;;
677;SDS011;321;48.814;9.132;2023-03-20T04:48:03;1.10;;;0.50;;
677;SDS011;321;48.814;9.132;2023-03-20T04:50:29;1.20;;;0.60;;
677;SDS011;321;48.814;9.132;2023-03-20T04:52:55;2.17;;;1.30;;
677;SDS011;321;48.814;9.132;2023-03-20T04:55:21;1.20;;;0.70;;
677;SDS011;321;48.814;9.132;2023-03-20T04:57:46;1.30;;;0.60;;
677;SDS011;321;48.814;9.132;2023-03-20T05:00:12;1.50;;;0.80;;
677;SDS011;321;48.814;9.132;2023-03-20T05:02:38;7.23;;;0.70;;
677;SDS011;321;48.814;9.132;2023-03-20T05:05:04;1.10;;;0.57;;
677;SDS011;321;48.814;9.132;2023-03-20T05:07:30;1.50;;;0.67;;
677;SDS011;321;48.814;9.132;2023-03-20T05:09:56;1.30;;;0.60;;
677;SDS011;321;48.814;9.132;2023-03-20T05:12:22;1.67;;;0.70;;
677;SDS011;321;48.814;9.132;2023-03-20T05:14:48;1.13;;;0.50;;
677;SDS011;321;48.814;9.132;2023-03-20T05:17:13;1.30;;;0.50;;
677;SDS011;321;48.814;9.132;2023-03-20T05:19:39;1.13;;;0.60;;
677;SDS011;321;48.814;9.132;2023-03-20T05:22:07;1.30;;;0.60;;
677;SDS011;321;48.814;9.132;2023-03-20T05:24:32;1.20;;;0.70;;
677;SDS011;321;48.814;9.132;2023-03-20T05:26:58;3.37;;;1.27;;
677;SDS011;321;48.814;9.132;2023-03-20T05:29:23;1.40;;;0.60;;
677;SDS011;321;48.814;9.132;2023-03-20T05:31:49;1.60;;;1.40;;
677;SDS011;321;48.814;9.132;2023-03-20T05:34:15;1.20;;;0.50;;
677;SDS011;321;48.814;9.132;2023-03-20T05:36:40;1.10;;;0.43;;
677;SDS011;321;48.814;9.132;2023-03-20T05:39:06;1.10;;;0.60;;
677;SDS011;321;48.814;9.132;2023-03-20T05:41:31;1.77;;;0.70;;
677;SDS011;321;48.814;9.132;2023-03-20T05:43:57;1.10;;;0.53;;
677;SDS011;321;48.814;9.132;2023-03-20T05:46:23;1.20;;;0.60;;
677;SDS011;321;48.814;9.132;2023-03-20T05:48:50;4.43;;;2.63;;
677;SDS011;321;48.814;9.132;2023-03-20T05:51:15;5.50;;;1.23;;
677;SDS011;321;48.814;9.132;2023-03-20T05:53:41;1.80;;;1.30;;
677;SDS011;321;48.814;9.132;2023-03-20T05:56:06;2.20;;;2.00;;
677;SDS011;321;48.814;9.132;2023-03-20T05:58:32;1.50;;;0.80;;
677;SDS011;321;48.814;9.132;2023-03-20T06:00:59;1.50;;;0.80;;
677;SDS011;321;48.814;9.132;2023-03-20T06:03:24;1.47;;;1.17;;
677;SDS011;321;48.814;9.132;2023-03-20T06:05:50;3.40;;;1.70;;
677;SDS011;321;48.814;9.132;2023-03-20T06:08:16;2.77;;;1.83;;
677;SDS011;321;48.814;9.132;2023-03-20T06:10:41;2.17;;;1.27;;
677;SDS011;321;48.814;9.132;2023-03-20T06:13:07;1.30;;;0.93;;
677;SDS011;321;48.814;9.132;2023-03-20T06:15:32;1.40;;;0.87;;
677;SDS011;321;48.814;9.132;2023-03-20T06:17:58;1.97;;;0.90;;
677;SDS011;321;48.814;9.132;2023-03-20T06:20:24;1.83;;;1.10;;
677;SDS011;321;48.814;9.132;2023-03-20T06:22:50;2.77;;;2.10;;
677;SDS011;321;48.814;9.132;2023-03-20T06:25:16;2.03;;;1.40;;
677;SDS011;321;48.814;9.132;2023-03-20T06:27:42;1.30;;;0.90;;
677;SDS011;321;48.814;9.132;2023-03-20T06:30:10;1.80;;;1.33;;
677;SDS011;321;48.814;9.132;2023-03-20T06:32:37;1.30;;;0.80;;
677;SDS011;321;48.814;9.132;2023-03-20T06:35:02;1.77;;;1.27;;
677;SDS011;321;48.814;9.132;2023-03-20T06:37:30;1.40;;;1.03;;
677;SDS011;321;48.814;9.132;2023-03-20T06:39:56;1.23;;;0.80;;
677;SDS011;321;48.814;9.132;2023-03-20T06:42:21;1.40;;;0.83;;
677;SDS011;321;48.814;9.132;2023-03-20T06:44:47;1.30;;;0.80;;
677;SDS011;321;48.814;9.132;2023-03-20T06:47:12;1.40;;;0.80;;
677;SDS011;321;48.814;9.132;2023-03-20T06:49:38;1.10;;;0.57;;
677;SDS011;321;48.814;9.132;2023-03-20T06:52:04;1.43;;;0.80;;
677;SDS011;321;48.814;9.132;2023-03-20T06:54:30;1.20;;;0.60;;
677;SDS011;321;48.814;9.132;2023-03-20T06:56:56;1.10;;;0.40;;
677;SDS011;321;48.814;9.132;2023-03-20T06:59:21;1.13;;;0.47;;
677;SDS011;321;48.814;9.132;2023-03-20T07:01:47;1.70;;;0.57;;
677;SDS011;321;48.814;9.132;2023-03-20T07:04:13;1.50;;;0.60;;
677;SDS011;321;48.814;9.132;2023-03-20T07:06:38;1.27;;;0.60;;
677;SDS011;321;48.814;9.132;2023-03-20T07:09:04;1.10;;;0.50;;
677;SDS011;321;48.814;9.132;2023-03-20T07:11:29;1.30;;;0.87;;
677;SDS011;321;48.814;9.132;2023-03-20T07:13:55;1.60;;;0.90;;
677;SDS011;321;48.814;9.132;2023-03-20T07:16:21;1.10;;;0.50;;
677;SDS011;321;48.814;9.132;2023-03-20T07:18:46;1.33;;;0.60;;
677;SDS011;321;48.814;9.132;2023-03-20T07:21:14;1.40;;;0.73;;
677;SDS011;321;48.814;9.132;2023-03-20T07:23:43;1.50;;;0.70;;
677;SDS011;321;48.814;9.132;2023-03-20T07:26:08;1.30;;;0.70;;
677;SDS011;321;48.814;9.132;2023-03-20T07:28:34;1.40;;;0.50;;
677;SDS011;321;48.814;9.132;2023-03-20T07:31:00;1.20;;;0.60;;
677;SDS011;321;48.814;9.132;2023-03-20T07:33:25;1.87;;;0.97;;
677;SDS011;321;48.814;9.132;2023-03-20T07:35:52;1.20;;;0.60;;
677;SDS011;321;48.814;9.132;2023-03-20T07:38:18;1.60;;;0.97;;
677;SDS011;321;48.814;9.132;2023-03-20T07:40:44;1.30;;;0.53;;
677;SDS011;321;48.814;9.132;2023-03-20T07:43:09;1.10;;;0.50;;
677;SDS011;321;48.814;9.132;2023-03-20T07:45:35;1.50;;;0.87;;
677;SDS011;321;48.814;9.132;2023-03-20T07:48:00;1.83;;;0.80;;
677;SDS011;321;48.814;9.132;2023-03-20T07:50:26;1.20;;;0.50;;
677;SDS011;321;48.814;9.132;2023-03-20T07:52:52;1.17;;;0.50;;
677;SDS011;321;48.814;9.132;2023-03-20T07:55:17;1.40;;;0.70;;
677;SDS011;321;48.814;9.132;2023-03-20T07:57:43;1.40;;;0.70;;
677;SDS011;321;48.814;9.132;2023-03-20T08:00:09;1.33;;;0.63;;
677;SDS011;321;48.814;9.132;2023-03-20T08:02:35;1.20;;;0.47;;
677;SDS011;321;48.814;9.132;2023-03-20T08:05:01;1.50;;;0.70;;
677;SDS011;321;48.814;9.132;2023-03-20T08:07:27;1.43;;;0.90;;
677;SDS011;321;48.814;9.132;2023-03-20T08:09:55;1.20;;;0.60;;
677;SDS011;321;48.814;9.132;2023-03-20T08:12:21;1.30;;;0.70;;
677;SDS011;321;48.814;9.132;2023-03-20T08:14:46;1.30;;;0.60;;
677;SDS011;321;48.814;9.132;2023-03-20T08:17:12;1.17;;;0.50;;
677;SDS011;321;48.814;9.132;2023-03-20T08:19:38;1.20;;;0.60;;
677;SDS011;321;48.814;9.132;2023-03-20T08:22:04;1.40;;;0.60;;
677;SDS011;321;48.814;9.132;2023-03-20T08:24:29;1.97;;;0.60;;
677;SDS011;321;48.814;9.132;2023-03-20T08:26:55;1.67;;;0.90;;
677;SDS011;321;48.814;9.132;2023-03-20T08:29:21;1.30;;;0.63;;
677;SDS011;321;48.814;9.132;2023-03-20T08:31:46;1.20;;;0.70;;
677;SDS011;321;48.814;9.132;2023-03-20T08:34:12;1.30;;;0.57;;
677;SDS011;321;48.814;9.132;2023-03-20T08:36:38;1.20;;;0.50;;
677;SDS011;321;48.814;9.132;2023-03-20T08:39:04;1.20;;;0.50;;
677;SDS011;321;48.814;9.132;2023-03-20T08:41:31;1.30;;;0.57;;
677;SDS011;321;48.814;9.132;2023-03-20T08:43:57;1.20;;;0.60;;
677;SDS011;321;48.814;9.132;2023-03-20T08:46:22;2.00;;;1.00;;
677;SDS011;321;48.814;9.132;2023-03-20T08:48:48;1.20;;;0.50;;
677;SDS011;321;48.814;9.132;2023-03-20T08:51:14;1.30;;;0.60;;
677;SDS011;321;48.814;9.132;2023-03-20T08:53:40;1.33;;;0.60;;
677;SDS011;321;48.814;9.132;2023-03-20T08:56:05;1.30;;;0.70;;
677;SDS011;321;48.814;9.132;2023-03-20T08:58:31;1.30;;;0.50;;
677;SDS011;321;48.814;9.132;2023-03-20T09:01:02;1.50;;;0.60;;
677;SDS011;321;48.814;9.132;2023-03-20T09:03:29;1.83;;;0.63;;
677;SDS011;321;48.814;9.132;2023-03-20T09:05:55;1.40;;;0.67;;
677;SDS011;321;48.814;9.132;2023-03-20T09:08:21;1.20;;;0.50;;
677;SDS011;321;48.814;9.132;2023-03-20T09:10:50;1.70;;;0.70;;
677;SDS011;321;48.814;9.132;2023-03-20T09:13:15;1.30;;;0.67;;
677;SDS011;321;48.814;9.132;2023-03-20T09:15:41;1.80;;;0.80;;
677;SDS011;321;48.814;9.132;2023-03-20T09:18:07;1.73;;;0.50;;
677;SDS011;321;48.814;9.132;2023-03-20T09:20:32;2.80;;;0.80;;
677;SDS011;321;48.814;9.132;2023-03-20T09:22:58;1.20;;;0.40;;
677;SDS011;321;48.814;9.132;2023-03-20T09:25:24;1.50;;;0.47;;
677;SDS011;321;48.814;9.132;2023-03-20T09:27:51;1.30;;;0.50;;
677;SDS011;321;48.814;9.132;2023-03-20T09:30:19;1.30;;;0.50;;
677;SDS011;321;48.814;9.132;2023-03-20T09:32:45;1.20;;;0.50;;
677;SDS011;321;48.814;9.132;2023-03-20T09:35:11;1.20;;;0.50;;
677;SDS011;321;48.814;9.132;2023-03-20T09:37:36;1.30;;;0.60;;
677;SDS011;321;48.814;9.132;2023-03-20T09:40:02;1.30;;;0.50;;
677;SDS011;321;48.814;9.132;2023-03-20T09:47:53;1.33;;;0.60;;
677;SDS011;321;48.814;9.132;2023-03-20T09:53:32;1.50;;;0.60;;
677;SDS011;321;48.814;9.132;2023-03-20T09:56:21;1.20;;;0.50;;
677;SDS011;321;48.814;9.132;2023-03-20T09:59:00;1.30;;;0.50;;
677;SDS011;321;48.814;9.132;2023-03-20T10:01:29;1.20;;;0.50;;
677;SDS011;321;48.814;9.132;2023-03-20T10:04:16;1.20;;;0.47;;
677;SDS011;321;48.814;9.132;2023-03-20T10:06:41;1.13;;;0.40;;
677;SDS011;321;48.814;9.132;2023-03-20T10:11:53;1.10;;;0.40;;
677;SDS011;321;48.814;9.132;2023-03-20T10:22:44;1.20;;;0.40;;
677;SDS011;321;48.814;9.132;2023-03-20T10:25:18;1.50;;;0.90;;
677;SDS011;321;48.814;9.132;2023-03-20T10:27:51;3.40;;;0.97;;
677;SDS011;321;48.814;9.132;2023-03-20T10:36:22;1.70;;;0.67;;
677;SDS011;321;48.814;9.132;2023-03-20T10:42:19;1.50;;;1.10;;
677;SDS011;321;48.814;9.132;2023-03-20T10:44:58;1.80;;;1.00;;
677;SDS011;321;48.814;9.132;2023-03-20T10:47:31;1.30;;;0.70;;
677;SDS011;321;48.814;9.132;2023-03-20T10:50:02;2.23;;;1.00;;
677;SDS011;321;48.814;9.132;2023-03-20T10:52:32;3.20;;;1.60;;
677;SDS011;321;48.814;9.132;2023-03-20T10:55:15;1.30;;;0.63;;
677;SDS011;321;48.814;9.132;2023-03-20T10:57:46;1.60;;;0.93;;
677;SDS011;321;48.814;9.132;2023-03-20T11:00:21;1.80;;;1.10;;
677;SDS011;321;48.814;9.132;2023-03-20T11:02:48;1.77;;;1.23;;
677;SDS011;321;48.814;9.132;2023-03-20T11:05:30;2.83;;;1.50;;
677;SDS011;321;48.814;9.132;2023-03-20T11:08:06;2.90;;;1.67;;
677;SDS011;321;48.814;9.132;2023-03-20T11:10:36;3.10;;;1.83;;
677;SDS011;321;48.814;9.132;2023-03-20T11:13:13;3.27;;;1.83;;
677;SDS011;321;48.814;9.132;2023-03-20T11:15:43;2.27;;;1.70;;
677;SDS011;321;48.814;9.132;2023-03-20T11:18:12;2.20;;;1.70;;
677;SDS011;321;48.814;9.132;2023-03-20T11:20:44;2.37;;;1.43;;
677;SDS011;321;48.814;9.132;2023-03-20T11:23:23;1.80;;;1.50;;
677;SDS011;321;48.814;9.132;2023-03-20T11:25:54;2.20;;;1.60;;
677;SDS011;321;48.814;9.132;2023-03-20T11:28:25;2.20;;;1.20;;
677;SDS011;321;48.814;9.132;2023-03-20T11:31:02;2.47;;;1.27;;
677;SDS011;321;48.814;9.132;2023-03-20T11:33:36;1.60;;;1.00;;
677;SDS011;321;48.814;9.132;2023-03-20T11:36:04;2.50;;;1.73;;
677;SDS011;321;48.814;9.132;2023-03-20T11:38:35;2.90;;;1.60;;
677;SDS011;321;48.814;9.132;2023-03-20T11:42:19;2.30;;;1.70;;
677;SDS011;321;48.814;9.132;2023-03-20T11:44:19;1.87;;;1.10;;
677;SDS011;321;48.814;9.132;2023-03-20T11:49:22;1.67;;;1.37;;
677;SDS011;321;48.814;9.132;2023-03-20T11:51:48;2.30;;;1.63;;
677;SDS011;321;48.814;9.132;2023-03-20T11:54:16;3.10;;;2.00;;
677;SDS011;321;48.814;9.132;2023-03-20T11:56:57;2.27;;;2.00;;
677;SDS011;321;48.814;9.132;2023-03-20T11:59:34;1.60;;;1.17;;
677;SDS011;321;48.814;9.132;2023-03-20T12:02:02;1.50;;;1.10;;
677;SDS011;321;48.814;9.132;2023-03-20T12:04:33;2.13;;;1.00;;
677;SDS011;321;48.814;9.132;2023-03-20T12:07:10;1.70;;;1.00;;
677;SDS011;321;48.814;9.132;2023-03-20T12:10:09;1.53;;;1.20;;
677;SDS011;321;48.814;9.132;2023-03-20T12:15:24;1.70;;;1.00;;
677;SDS011;321;48.814;9.132;2023-03-20T12:23:31;3.03;;;1.90;;
677;SDS011;321;48.814;9.132;2023-03-20T12:26:02;2.53;;;1.83;;
677;SDS011;321;48.814;9.132;2023-03-20T12:28:41;4.03;;;1.30;;
677;SDS011;321;48.814;9.132;2023-03-20T12:36:32;2.77;;;1.70;;
677;SDS011;321;48.814;9.132;2023-03-20T12:39:04;2.90;;;1.80;;
677;SDS011;321;48.814;9.132;2023-03-20T12:41:48;2.20;;;1.47;;
677;SDS011;321;48.814;9.132;2023-03-20T12:44:29;2.57;;;1.47;;
677;SDS011;321;48.814;9.132;2023-03-20T12:55:36;2.23;;;1.20;;
677;SDS011;321;48.814;9.132;2023-03-20T12:58:21;2.30;;;1.17;;
677;SDS011;321;48.814;9.132;2023-03-20T13:09:18;2.30;;;1.40;;
677;SDS011;321;48.814;9.132;2023-03-20T13:14:47;3.10;;;1.60;;
677;SDS011;321;48.814;9.132;2023-03-20T13:20:15;2.93;;;1.00;;
677;SDS011;321;48.814;9.132;2023-03-20T13:30:56;1.80;;;1.07;;
677;SDS011;321;48.814;9.132;2023-03-20T13:36:20;1.90;;;1.10;;
677;SDS011;321;48.814;9.132;2023-03-20T13:41:46;2.77;;;1.57;;
677;SDS011;321;48.814;9.132;2023-03-20T13:44:14;1.70;;;1.20;;
677;SDS011;321;48.814;9.132;2023-03-20T13:55:23;2.17;;;0.90;;
677;SDS011;321;48.814;9.132;2023-03-20T14:01:05;2.20;;;1.57;;
677;SDS011;321;48.814;9.132;2023-03-20T14:03:46;2.50;;;0.83;;
677;SDS011;321;48.814;9.132;2023-03-20T14:08:52;3.40;;;1.20;;
677;SDS011;321;48.814;9.132;2023-03-20T14:13:58;1.70;;;1.00;;
677;SDS011;321;48.814;9.132;2023-03-20T14:16:37;2.63;;;1.10;;
677;SDS011;321;48.814;9.132;2023-03-20T14:19:24;1.50;;;1.10;;
677;SDS011;321;48.814;9.132;2023-03-20T14:21:53;1.50;;;0.77;;
677;SDS011;321;48.814;9.132;2023-03-20T14:24:20;2.20;;;1.03;;
677;SDS011;321;48.814;9.132;2023-03-20T14:26:55;1.50;;;0.90;;
677;SDS011;321;48.814;9.132;2023-03-20T14:34:45;1.83;;;1.10;;
677;SDS011;321;48.814;9.132;2023-03-20T14:37:37;1.43;;;0.70;;
677;SDS011;321;48.814;9.132;2023-03-20T14:40:15;1.53;;;1.03;;
677;SDS011;321;48.814;9.132;2023-03-20T14:42:57;1.40;;;0.70;;
677;SDS011;321;48.814;9.132;2023-03-20T14:45:40;2.00;;;0.90;;
677;SDS011;321;48.814;9.132;2023-03-20T14:50:56;2.97;;;1.50;;
677;SDS011;321;48.814;9.132;2023-03-20T14:53:29;1.57;;;1.10;;
677;SDS011;321;48.814;9.132;2023-03-20T15:06:17;2.43;;;1.80;;
677;SDS011;321;48.814;9.132;2023-03-20T15:09:18;2.27;;;1.20;;
677;SDS011;321;48.814;9.132;2023-03-20T15:11:37;2.13;;;0.73;;
677;SDS011;321;48.814;9.132;2023-03-20T15:14:05;1.50;;;0.80;;
677;SDS011;321;48.814;9.132;2023-03-20T15:16:33;1.40;;;0.80;;
677;SDS011;321;48.814;9.132;2023-03-20T15:19:00;1.30;;;0.47;;
677;SDS011;321;48.814;9.132;2023-03-20T15:21:32;1.70;;;0.60;;
677;SDS011;321;48.814;9.132;2023-03-20T15:24:01;1.10;;;0.43;;
677;SDS011;321;48.814;9.132;2023-03-20T15:26:27;1.33;;;0.60;;
677;SDS011;321;48.814;9.132;2023-03-20T15:29:01;1.40;;;0.70;;
677;SDS011;321;48.814;9.132;2023-03-20T15:31:30;1.20;;;0.60;;
677;SDS011;321;48.814;9.132;2023-03-20T15:33:59;1.40;;;0.63;;
677;SDS011;321;48.814;9.132;2023-03-20T15:36:29;1.67;;;0.80;;
677;SDS011;321;48.814;9.132;2023-03-20T15:41:36;3.37;;;1.10;;
677;SDS011;321;48.814;9.132;2023-03-20T15:49:35;1.37;;;0.63;;
677;SDS011;321;48.814;9.132;2023-03-20T15:52:04;2.03;;;1.03;;
677;SDS011;321;48.814;9.132;2023-03-20T15:54:35;1.73;;;0.97;;
677;SDS011;321;48.814;9.132;2023-03-20T15:57:01;1.20;;;0.63;;
677;SDS011;321;48.814;9.132;2023-03-20T15:59:28;1.60;;;0.80;;
677;SDS011;321;48.814;9.132;2023-03-20T16:01:56;1.30;;;0.80;;
677;SDS011;321;48.814;9.132;2023-03-20T16:04:22;2.90;;;0.83;;
677;SDS011;321;48.814;9.132;2023-03-20T16:06:53;1.30;;;0.53;;
677;SDS011;321;48.814;9.132;2023-03-20T16:09:24;1.83;;;0.93;;
677;SDS011;321;48.814;9.132;2023-03-20T16:11:58;1.63;;;0.60;;
677;SDS011;321;48.814;9.132;2023-03-20T16:14:26;1.33;;;0.67;;
677;SDS011;321;48.814;9.132;2023-03-20T16:16:57;1.43;;;0.67;;
677;SDS011;321;48.814;9.132;2023-03-20T16:19:24;1.20;;;0.50;;
677;SDS011;321;48.814;9.132;2023-03-20T16:21:55;1.37;;;0.67;;
677;SDS011;321;48.814;9.132;2023-03-20T16:24:30;1.20;;;0.60;;
677;SDS011;321;48.814;9.132;2023-03-20T16:27:00;2.10;;;0.90;;
677;SDS011;321;48.814;9.132;2023-03-20T16:29:30;1.40;;;0.73;;
677;SDS011;321;48.814;9.132;2023-03-20T16:31:57;1.40;;;0.67;;
677;SDS011;321;48.814;9.132;2023-03-20T16:34:29;1.20;;;0.57;;
677;SDS011;321;48.814;9.132;2023-03-20T16:36:58;1.20;;;0.60;;
677;SDS011;321;48.814;9.132;2023-03-20T16:39:28;1.30;;;0.70;;
677;SDS011;321;48.814;9.132;2023-03-20T16:42:40;2.17;;;0.70;;
677;SDS011;321;48.814;9.132;2023-03-20T16:44:47;1.30;;;0.70;;
677;SDS011;321;48.814;9.132;2023-03-20T16:47:32;1.20;;;0.50;;
677;SDS011;321;48.814;9.132;2023-03-20T16:50:21;1.50;;;0.87;;
677;SDS011;321;48.814;9.132;2023-03-20T16:52:49;1.40;;;0.77;;
677;SDS011;321;48.814;9.132;2023-03-20T16:55:21;1.37;;;0.57;;
677;SDS011;321;48.814;9.132;2023-03-20T16:57:52;2.03;;;0.77;;
677;SDS011;321;48.814;9.132;2023-03-20T17:00:22;1.40;;;0.80;;
677;SDS011;321;48.814;9.132;2023-03-20T17:02:59;1.40;;;1.00;;
677;SDS011;321;48.814;9.132;2023-03-20T17:05:52;1.93;;;1.23;;
677;SDS011;321;48.814;9.132;2023-03-20T17:11:11;1.53;;;0.80;;
677;SDS011;321;48.814;9.132;2023-03-20T17:13:38;1.60;;;0.90;;
677;SDS011;321;48.814;9.132;2023-03-20T17:16:04;1.20;;;0.53;;
677;SDS011;321;48.814;9.132;2023-03-20T17:18:30;1.20;;;0.53;;
677;SDS011;321;48.814;9.132;2023-03-20T17:20:55;1.40;;;0.67;;
677;SDS011;321;48.814;9.132;2023-03-20T17:23:21;1.40;;;0.80;;
677;SDS011;321;48.814;9.132;2023-03-20T17:25:47;1.47;;;1.10;;
677;SDS011;321;48.814;9.132;2023-03-20T17:28:15;1.80;;;0.70;;
677;SDS011;321;48.814;9.132;2023-03-20T17:30:44;1.60;;;1.00;;
677;SDS011;321;48.814;9.132;2023-03-20T17:33:12;1.40;;;0.70;;
677;SDS011;321;48.814;9.132;2023-03-20T17:35:39;1.40;;;0.67;;
677;SDS011;321;48.814;9.132;2023-03-20T17:38:08;2.00;;;0.90;;
677;SDS011;321;48.814;9.132;2023-03-20T17:41:00;1.17;;;0.50;;
677;SDS011;321;48.814;9.132;2023-03-20T17:43:26;1.97;;;1.13;;
677;SDS011;321;48.814;9.132;2023-03-20T17:45:51;3.20;;;1.00;;
677;SDS011;321;48.814;9.132;2023-03-20T17:48:17;1.30;;;0.60;;
677;SDS011;321;48.814;9.132;2023-03-20T17:50:45;2.10;;;1.20;;
677;SDS011;321;48.814;9.132;2023-03-20T17:53:22;1.87;;;1.10;;
677;SDS011;321;48.814;9.132;2023-03-20T17:55:49;3.83;;;1.27;;
677;SDS011;321;48.814;9.132;2023-03-20T17:58:16;5.50;;;1.57;;
677;SDS011;321;48.814;9.132;2023-03-20T18:00:45;1.30;;;0.70;;
677;SDS011;321;48.814;9.132;2023-03-20T18:03:11;2.43;;;1.43;;
677;SDS011;321;48.814;9.132;2023-03-20T18:05:39;1.73;;;1.00;;
677;SDS011;321;48.814;9.132;2023-03-20T18:08:09;2.13;;;1.23;;
677;SDS011;321;48.814;9.132;2023-03-20T18:10:38;1.50;;;0.80;;
677;SDS011;321;48.814;9.132;2023-03-20T18:13:03;2.10;;;1.47;;
677;SDS011;321;48.814;9.132;2023-03-20T18:15:29;2.53;;;1.07;;
677;SDS011;321;48.814;9.132;2023-03-20T18:17:55;2.60;;;1.77;;
677;SDS011;321;48.814;9.132;2023-03-20T18:20:22;1.90;;;0.90;;
677;SDS011;321;48.814;9.132;2023-03-20T18:22:50;1.60;;;1.20;;
677;SDS011;321;48.814;9.132;2023-03-20T18:25:15;2.17;;;1.20;;
677;SDS011;321;48.814;9.132;2023-03-20T18:27:42;1.37;;;0.87;;
677;SDS011;321;48.814;9.132;2023-03-20T18:30:14;2.00;;;1.30;;
677;SDS011;321;48.814;9.132;2023-03-20T18:32:42;1.70;;;1.00;;
677;SDS011;321;48.814;9.132;2023-03-20T18:35:08;1.73;;;1.13;;
677;SDS011;321;48.814;9.132;2023-03-20T18:37:34;2.30;;;1.40;;
677;SDS011;321;48.814;9.132;2023-03-20T18:40:00;2.53;;;1.53;;
677;SDS011;321;48.814;9.132;2023-03-20T18:42:26;1.90;;;1.07;;
677;SDS011;321;48.814;9.132;2023-03-20T18:44:51;1.40;;;1.00;;
677;SDS011;321;48.814;9.132;2023-03-20T18:47:17;3.20;;;1.03;;
677;SDS011;321;48.814;9.132;2023-03-20T18:49:43;2.13;;;1.40;;